sensor_id;sensor_type;location;lat;lon;timestamp;P1;durP1;ratioP1;P2;durP2;ratioP2
33266;SDS011;19638;49.080;11.896;2023-04-03T00:00:36;3.67;;;3.37;;
33266;SDS011;19638;49.080;11.896;2023-04-03T00:04:41;4.23;;;3.50;;
33266;SDS011;19638;49.080;11.896;2023-04-03T00:08:49;3.33;;;3.03;;
33266;SDS011;19638;49.080;11.896;2023-04-03T00:12:54;3.60;;;3.30;;
33266;SDS011;19638;49.080;11.896;2023-04-03T00:16:58;4.10;;;3.67;;
33266;SDS011;19638;49.080;11.896;2023-04-03T00:21:03;5.07;;;3.47;;
33266;SDS011;19638;49.080;11.896;2023-04-03T00:25:08;4.63;;;3.80;;
33266;SDS011;19638;49.080;11.896;2023-04-03T00:29:20;3.43;;;3.13;;
33266;SDS011;19638;49.080;11.896;2023-04-03T00:33:24;3.93;;;3.57;;
33266;SDS011;19638;49.080;11.896;2023-04-03T00:37:31;3.87;;;3.47;;
33266;SDS011;19638;49.080;11.896;2023-04-03T00:41:35;4.80;;;3.27;;
33266;SDS011;19638;49.080;11.896;2023-04-03T00:45:38;5.00;;;2.90;;
33266;SDS011;19638;49.080;11.896;2023-04-03T00:49:46;3.87;;;3.17;;
33266;SDS011;19638;49.080;11.896;2023-04-03T00:53:54;6.43;;;3.43;;
33266;SDS011;19638;49.080;11.896;2023-04-03T00:58:01;3.67;;;3.10;;
33266;SDS011;19638;49.080;11.896;2023-04-03T01:02:11;4.17;;;3.00;;
33266;SDS011;19638;49.080;11.896;2023-04-03T01:06:16;3.70;;;3.40;;
33266;SDS011;19638;49.080;11.896;2023-04-03T01:10:23;3.33;;;3.03;;
33266;SDS011;19638;49.080;11.896;2023-04-03T01:14:29;7.33;;;3.77;;
33266;SDS011;19638;49.080;11.896;2023-04-03T01:18:38;5.10;;;3.80;;
33266;SDS011;19638;49.080;11.896;2023-04-03T01:22:48;4.47;;;3.20;;
33266;SDS011;19638;49.080;11.896;2023-04-03T01:27:01;4.27;;;3.40;;
33266;SDS011;19638;49.080;11.896;2023-04-03T01:31:09;3.57;;;3.23;;
33266;SDS011;19638;49.080;11.896;2023-04-03T01:35:21;4.23;;;3.40;;
33266;SDS011;19638;49.080;11.896;2023-04-03T01:39:24;3.80;;;3.40;;
33266;SDS011;19638;49.080;11.896;2023-04-03T01:43:27;6.43;;;3.80;;
33266;SDS011;19638;49.080;11.896;2023-04-03T01:47:34;3.40;;;3.10;;
33266;SDS011;19638;49.080;11.896;2023-04-03T01:51:40;4.20;;;3.30;;
33266;SDS011;19638;49.080;11.896;2023-04-03T01:55:45;6.40;;;3.40;;
33266;SDS011;19638;49.080;11.896;2023-04-03T01:59:48;6.20;;;3.63;;
33266;SDS011;19638;49.080;11.896;2023-04-03T02:03:53;3.70;;;3.37;;
33266;SDS011;19638;49.080;11.896;2023-04-03T02:07:58;3.33;;;3.03;;
33266;SDS011;19638;49.080;11.896;2023-04-03T02:12:01;4.20;;;3.40;;
33266;SDS011;19638;49.080;11.896;2023-04-03T02:16:06;4.00;;;3.60;;
33266;SDS011;19638;49.080;11.896;2023-04-03T02:20:11;5.20;;;2.80;;
33266;SDS011;19638;49.080;11.896;2023-04-03T02:24:16;5.90;;;3.60;;
33266;SDS011;19638;49.080;11.896;2023-04-03T02:28:19;3.53;;;3.23;;
33266;SDS011;19638;49.080;11.896;2023-04-03T02:32:23;3.60;;;3.30;;
33266;SDS011;19638;49.080;11.896;2023-04-03T02:36:28;4.30;;;3.90;;
33266;SDS011;19638;49.080;11.896;2023-04-03T02:40:37;3.70;;;3.30;;
33266;SDS011;19638;49.080;11.896;2023-04-03T02:44:40;3.80;;;3.30;;
33266;SDS011;19638;49.080;11.896;2023-04-03T02:48:46;4.63;;;3.40;;
33266;SDS011;19638;49.080;11.896;2023-04-03T02:52:49;7.07;;;3.50;;
33266;SDS011;19638;49.080;11.896;2023-04-03T02:56:57;5.17;;;3.60;;
33266;SDS011;19638;49.080;11.896;2023-04-03T03:01:07;4.37;;;3.50;;
33266;SDS011;19638;49.080;11.896;2023-04-03T03:05:10;5.33;;;3.70;;
33266;SDS011;19638;49.080;11.896;2023-04-03T03:09:13;3.70;;;3.40;;
33266;SDS011;19638;49.080;11.896;2023-04-03T03:13:17;4.60;;;3.83;;
33266;SDS011;19638;49.080;11.896;2023-04-03T03:17:24;3.93;;;3.60;;
33266;SDS011;19638;49.080;11.896;2023-04-03T03:21:29;3.40;;;3.10;;
33266;SDS011;19638;49.080;11.896;2023-04-03T03:25:37;3.83;;;3.53;;
33266;SDS011;19638;49.080;11.896;2023-04-03T03:29:45;5.60;;;3.60;;
33266;SDS011;19638;49.080;11.896;2023-04-03T03:33:50;5.83;;;3.40;;
33266;SDS011;19638;49.080;11.896;2023-04-03T03:37:55;5.13;;;3.43;;
33266;SDS011;19638;49.080;11.896;2023-04-03T03:42:01;4.37;;;3.60;;
33266;SDS011;19638;49.080;11.896;2023-04-03T03:46:06;6.97;;;3.77;;
33266;SDS011;19638;49.080;11.896;2023-04-03T03:50:11;5.33;;;3.57;;
33266;SDS011;19638;49.080;11.896;2023-04-03T03:54:14;4.43;;;3.33;;
33266;SDS011;19638;49.080;11.896;2023-04-03T03:58:20;6.17;;;3.23;;
33266;SDS011;19638;49.080;11.896;2023-04-03T04:02:24;3.77;;;3.13;;
33266;SDS011;19638;49.080;11.896;2023-04-03T04:06:30;4.90;;;3.80;;
33266;SDS011;19638;49.080;11.896;2023-04-03T04:10:34;4.13;;;3.50;;
33266;SDS011;19638;49.080;11.896;2023-04-03T04:14:40;4.33;;;3.60;;
33266;SDS011;19638;49.080;11.896;2023-04-03T04:18:51;5.33;;;3.60;;
33266;SDS011;19638;49.080;11.896;2023-04-03T04:22:59;7.57;;;3.83;;
33266;SDS011;19638;49.080;11.896;2023-04-03T04:27:02;3.70;;;3.40;;
33266;SDS011;19638;49.080;11.896;2023-04-03T04:31:10;4.60;;;3.20;;
33266;SDS011;19638;49.080;11.896;2023-04-03T04:35:17;5.70;;;4.00;;
33266;SDS011;19638;49.080;11.896;2023-04-03T04:39:20;5.33;;;3.63;;
33266;SDS011;19638;49.080;11.896;2023-04-03T04:43:23;4.27;;;3.77;;
33266;SDS011;19638;49.080;11.896;2023-04-03T04:47:27;11.13;;;4.00;;
33266;SDS011;19638;49.080;11.896;2023-04-03T04:51:33;5.97;;;3.90;;
33266;SDS011;19638;49.080;11.896;2023-04-03T04:55:52;7.27;;;3.70;;
33266;SDS011;19638;49.080;11.896;2023-04-03T04:59:55;8.13;;;4.23;;
33266;SDS011;19638;49.080;11.896;2023-04-03T05:04:00;10.60;;;3.63;;
33266;SDS011;19638;49.080;11.896;2023-04-03T05:08:07;4.10;;;3.70;;
33266;SDS011;19638;49.080;11.896;2023-04-03T05:12:12;4.70;;;3.63;;
33266;SDS011;19638;49.080;11.896;2023-04-03T05:16:15;8.30;;;3.63;;
33266;SDS011;19638;49.080;11.896;2023-04-03T05:20:18;6.87;;;3.77;;
33266;SDS011;19638;49.080;11.896;2023-04-03T05:24:27;4.27;;;3.60;;
33266;SDS011;19638;49.080;11.896;2023-04-03T05:28:30;5.70;;;3.63;;
33266;SDS011;19638;49.080;11.896;2023-04-03T05:32:34;3.73;;;3.10;;
33266;SDS011;19638;49.080;11.896;2023-04-03T05:36:39;8.43;;;3.53;;
33266;SDS011;19638;49.080;11.896;2023-04-03T05:40:49;5.47;;;3.30;;
33266;SDS011;19638;49.080;11.896;2023-04-03T05:44:52;5.03;;;3.60;;
33266;SDS011;19638;49.080;11.896;2023-04-03T05:48:58;8.77;;;3.60;;
33266;SDS011;19638;49.080;11.896;2023-04-03T05:53:04;4.57;;;3.50;;
33266;SDS011;19638;49.080;11.896;2023-04-03T05:57:09;4.57;;;3.57;;
33266;SDS011;19638;49.080;11.896;2023-04-03T06:01:13;4.30;;;3.67;;
33266;SDS011;19638;49.080;11.896;2023-04-03T06:05:19;3.60;;;3.30;;
33266;SDS011;19638;49.080;11.896;2023-04-03T06:09:24;4.67;;;3.80;;
33266;SDS011;19638;49.080;11.896;2023-04-03T06:13:31;8.03;;;3.70;;
33266;SDS011;19638;49.080;11.896;2023-04-03T06:17:36;7.33;;;3.90;;
33266;SDS011;19638;49.080;11.896;2023-04-03T06:21:40;8.57;;;3.97;;
33266;SDS011;19638;49.080;11.896;2023-04-03T06:25:44;4.87;;;3.83;;
33266;SDS011;19638;49.080;11.896;2023-04-03T06:29:49;4.80;;;3.93;;
33266;SDS011;19638;49.080;11.896;2023-04-03T06:33:55;5.20;;;3.33;;
33266;SDS011;19638;49.080;11.896;2023-04-03T06:38:01;7.57;;;4.00;;
33266;SDS011;19638;49.080;11.896;2023-04-03T06:42:05;9.97;;;4.67;;
33266;SDS011;19638;49.080;11.896;2023-04-03T06:46:14;7.70;;;4.40;;
33266;SDS011;19638;49.080;11.896;2023-04-03T06:50:19;8.60;;;4.27;;
33266;SDS011;19638;49.080;11.896;2023-04-03T06:54:22;7.90;;;4.27;;
33266;SDS011;19638;49.080;11.896;2023-04-03T06:58:29;6.07;;;4.20;;
33266;SDS011;19638;49.080;11.896;2023-04-03T07:02:37;6.27;;;4.10;;
33266;SDS011;19638;49.080;11.896;2023-04-03T07:06:42;6.27;;;4.40;;
33266;SDS011;19638;49.080;11.896;2023-04-03T07:10:46;5.23;;;4.20;;
33266;SDS011;19638;49.080;11.896;2023-04-03T07:14:50;7.50;;;4.53;;
33266;SDS011;19638;49.080;11.896;2023-04-03T07:18:58;5.23;;;4.17;;
33266;SDS011;19638;49.080;11.896;2023-04-03T07:23:01;10.80;;;5.43;;
33266;SDS011;19638;49.080;11.896;2023-04-03T07:27:05;6.83;;;4.13;;
33266;SDS011;19638;49.080;11.896;2023-04-03T07:31:11;10.90;;;4.23;;
33266;SDS011;19638;49.080;11.896;2023-04-03T07:35:19;6.77;;;4.00;;
33266;SDS011;19638;49.080;11.896;2023-04-03T07:39:26;6.77;;;4.10;;
33266;SDS011;19638;49.080;11.896;2023-04-03T07:43:29;4.30;;;3.70;;
33266;SDS011;19638;49.080;11.896;2023-04-03T07:47:32;8.07;;;4.37;;
33266;SDS011;19638;49.080;11.896;2023-04-03T07:51:38;4.87;;;3.57;;
33266;SDS011;19638;49.080;11.896;2023-04-03T07:55:42;5.90;;;3.57;;
33266;SDS011;19638;49.080;11.896;2023-04-03T07:59:48;8.97;;;3.60;;
33266;SDS011;19638;49.080;11.896;2023-04-03T08:03:51;5.80;;;3.20;;
33266;SDS011;19638;49.080;11.896;2023-04-03T08:08:02;4.70;;;3.47;;
33266;SDS011;19638;49.080;11.896;2023-04-03T08:12:17;6.30;;;3.43;;
33266;SDS011;19638;49.080;11.896;2023-04-03T08:16:22;7.47;;;3.20;;
33266;SDS011;19638;49.080;11.896;2023-04-03T08:20:29;5.87;;;3.23;;
33266;SDS011;19638;49.080;11.896;2023-04-03T08:24:34;6.00;;;3.00;;
33266;SDS011;19638;49.080;11.896;2023-04-03T08:28:41;6.60;;;2.77;;
33266;SDS011;19638;49.080;11.896;2023-04-03T08:32:47;2.83;;;2.40;;
33266;SDS011;19638;49.080;11.896;2023-04-03T08:36:51;4.13;;;1.97;;
33266;SDS011;19638;49.080;11.896;2023-04-03T08:41:04;6.57;;;2.73;;
33266;SDS011;19638;49.080;11.896;2023-04-03T08:45:14;3.03;;;2.77;;
33266;SDS011;19638;49.080;11.896;2023-04-03T08:49:25;4.03;;;2.60;;
33266;SDS011;19638;49.080;11.896;2023-04-03T08:53:33;6.27;;;2.80;;
33266;SDS011;19638;49.080;11.896;2023-04-03T08:57:45;7.70;;;2.40;;
33266;SDS011;19638;49.080;11.896;2023-04-03T09:01:51;2.13;;;1.90;;
33266;SDS011;19638;49.080;11.896;2023-04-03T09:05:57;4.50;;;1.80;;
33266;SDS011;19638;49.080;11.896;2023-04-03T09:10:08;4.27;;;2.50;;
33266;SDS011;19638;49.080;11.896;2023-04-03T09:14:18;3.57;;;1.90;;
33266;SDS011;19638;49.080;11.896;2023-04-03T09:18:30;1.70;;;1.60;;
33266;SDS011;19638;49.080;11.896;2023-04-03T09:22:35;4.97;;;2.07;;
33266;SDS011;19638;49.080;11.896;2023-04-03T09:26:53;2.20;;;1.67;;
33266;SDS011;19638;49.080;11.896;2023-04-03T09:31:05;2.97;;;2.00;;
33266;SDS011;19638;49.080;11.896;2023-04-03T09:35:21;2.50;;;1.70;;
33266;SDS011;19638;49.080;11.896;2023-04-03T09:39:49;2.00;;;1.80;;
33266;SDS011;19638;49.080;11.896;2023-04-03T09:43:54;9.33;;;4.33;;
33266;SDS011;19638;49.080;11.896;2023-04-03T09:48:07;3.70;;;2.00;;
33266;SDS011;19638;49.080;11.896;2023-04-03T09:52:23;3.10;;;1.67;;
33266;SDS011;19638;49.080;11.896;2023-04-03T09:56:28;3.93;;;2.10;;
33266;SDS011;19638;49.080;11.896;2023-04-03T10:00:36;1.93;;;1.83;;
33266;SDS011;19638;49.080;11.896;2023-04-03T10:04:42;2.37;;;1.70;;
33266;SDS011;19638;49.080;11.896;2023-04-03T10:08:58;3.20;;;1.70;;
33266;SDS011;19638;49.080;11.896;2023-04-03T10:13:09;3.20;;;1.70;;
33266;SDS011;19638;49.080;11.896;2023-04-03T10:17:22;3.43;;;2.17;;
33266;SDS011;19638;49.080;11.896;2023-04-03T10:21:40;2.03;;;1.83;;
33266;SDS011;19638;49.080;11.896;2023-04-03T10:25:59;1.67;;;1.57;;
33266;SDS011;19638;49.080;11.896;2023-04-03T10:30:23;3.13;;;1.70;;
33266;SDS011;19638;49.080;11.896;2023-04-03T10:34:44;2.80;;;2.00;;
33266;SDS011;19638;49.080;11.896;2023-04-03T10:39:09;1.87;;;1.77;;
33266;SDS011;19638;49.080;11.896;2023-04-03T10:43:21;2.10;;;1.87;;
33266;SDS011;19638;49.080;11.896;2023-04-03T10:47:34;2.27;;;1.93;;
33266;SDS011;19638;49.080;11.896;2023-04-03T10:51:45;3.00;;;2.17;;
33266;SDS011;19638;49.080;11.896;2023-04-03T10:55:54;4.27;;;2.07;;
33266;SDS011;19638;49.080;11.896;2023-04-03T11:00:04;1.70;;;1.60;;
33266;SDS011;19638;49.080;11.896;2023-04-03T11:04:16;2.67;;;1.70;;
33266;SDS011;19638;49.080;11.896;2023-04-03T11:08:27;2.90;;;1.80;;
33266;SDS011;19638;49.080;11.896;2023-04-03T11:12:38;2.93;;;2.10;;
33266;SDS011;19638;49.080;11.896;2023-04-03T11:16:50;3.90;;;1.90;;
33266;SDS011;19638;49.080;11.896;2023-04-03T11:21:03;4.83;;;1.87;;
33266;SDS011;19638;49.080;11.896;2023-04-03T11:25:17;1.90;;;1.70;;
33266;SDS011;19638;49.080;11.896;2023-04-03T11:29:26;2.60;;;1.80;;
33266;SDS011;19638;49.080;11.896;2023-04-03T11:33:41;2.37;;;1.70;;
33266;SDS011;19638;49.080;11.896;2023-04-03T11:37:53;1.37;;;1.37;;
33266;SDS011;19638;49.080;11.896;2023-04-03T11:42:12;2.70;;;1.77;;
33266;SDS011;19638;49.080;11.896;2023-04-03T11:46:19;2.40;;;1.80;;
33266;SDS011;19638;49.080;11.896;2023-04-03T11:50:30;2.47;;;1.60;;
33266;SDS011;19638;49.080;11.896;2023-04-03T11:54:48;2.20;;;1.97;;
33266;SDS011;19638;49.080;11.896;2023-04-03T12:08:16;1.97;;;1.70;;
33266;SDS011;19638;49.080;11.896;2023-04-03T12:12:31;1.70;;;1.60;;
33266;SDS011;19638;49.080;11.896;2023-04-03T12:16:42;3.17;;;1.70;;
33266;SDS011;19638;49.080;11.896;2023-04-03T12:20:55;2.13;;;1.60;;
33266;SDS011;19638;49.080;11.896;2023-04-03T12:25:06;3.50;;;1.90;;
33266;SDS011;19638;49.080;11.896;2023-04-03T12:29:53;1.80;;;1.70;;
33266;SDS011;19638;49.080;11.896;2023-04-03T12:34:13;2.30;;;1.93;;
33266;SDS011;19638;49.080;11.896;2023-04-03T12:43:14;3.50;;;1.83;;
33266;SDS011;19638;49.080;11.896;2023-04-03T12:47:32;4.10;;;1.77;;
33266;SDS011;19638;49.080;11.896;2023-04-03T12:51:42;4.17;;;1.67;;
33266;SDS011;19638;49.080;11.896;2023-04-03T12:55:54;3.00;;;1.53;;
33266;SDS011;19638;49.080;11.896;2023-04-03T13:04:33;1.93;;;1.80;;
33266;SDS011;19638;49.080;11.896;2023-04-03T13:08:38;5.10;;;1.97;;
33266;SDS011;19638;49.080;11.896;2023-04-03T13:12:53;1.87;;;1.77;;
33266;SDS011;19638;49.080;11.896;2023-04-03T13:16:58;2.23;;;1.50;;
33266;SDS011;19638;49.080;11.896;2023-04-03T13:21:13;1.70;;;1.60;;
33266;SDS011;19638;49.080;11.896;2023-04-03T13:25:23;2.80;;;1.70;;
33266;SDS011;19638;49.080;11.896;2023-04-03T13:29:31;3.27;;;1.60;;
33266;SDS011;19638;49.080;11.896;2023-04-03T13:33:38;2.77;;;1.57;;
33266;SDS011;19638;49.080;11.896;2023-04-03T13:37:52;3.83;;;1.90;;
33266;SDS011;19638;49.080;11.896;2023-04-03T13:41:57;1.43;;;1.40;;
33266;SDS011;19638;49.080;11.896;2023-04-03T13:46:06;11.23;;;2.17;;
33266;SDS011;19638;49.080;11.896;2023-04-03T13:50:28;1.80;;;1.70;;
33266;SDS011;19638;49.080;11.896;2023-04-03T13:54:34;2.67;;;1.60;;
33266;SDS011;19638;49.080;11.896;2023-04-03T13:58:51;4.33;;;1.90;;
33266;SDS011;19638;49.080;11.896;2023-04-03T14:03:00;2.60;;;1.80;;
33266;SDS011;19638;49.080;11.896;2023-04-03T14:07:03;2.30;;;2.00;;
33266;SDS011;19638;49.080;11.896;2023-04-03T14:11:09;2.03;;;1.80;;
33266;SDS011;19638;49.080;11.896;2023-04-03T14:15:16;5.97;;;1.60;;
33266;SDS011;19638;49.080;11.896;2023-04-03T14:19:25;4.50;;;1.90;;
33266;SDS011;19638;49.080;11.896;2023-04-03T14:23:30;2.00;;;1.70;;
33266;SDS011;19638;49.080;11.896;2023-04-03T14:27:37;4.17;;;1.70;;
33266;SDS011;19638;49.080;11.896;2023-04-03T14:31:42;2.43;;;1.60;;
33266;SDS011;19638;49.080;11.896;2023-04-03T14:35:56;2.13;;;1.93;;
33266;SDS011;19638;49.080;11.896;2023-04-03T14:40:01;4.00;;;1.93;;
33266;SDS011;19638;49.080;11.896;2023-04-03T14:44:06;2.30;;;1.57;;
33266;SDS011;19638;49.080;11.896;2023-04-03T14:48:19;1.90;;;1.80;;
33266;SDS011;19638;49.080;11.896;2023-04-03T14:52:26;3.13;;;1.80;;
33266;SDS011;19638;49.080;11.896;2023-04-03T14:56:31;3.10;;;1.70;;
33266;SDS011;19638;49.080;11.896;2023-04-03T15:00:34;2.40;;;1.90;;
33266;SDS011;19638;49.080;11.896;2023-04-03T15:04:41;1.73;;;1.63;;
33266;SDS011;19638;49.080;11.896;2023-04-03T15:08:49;4.80;;;2.00;;
33266;SDS011;19638;49.080;11.896;2023-04-03T15:12:56;4.67;;;2.07;;
33266;SDS011;19638;49.080;11.896;2023-04-03T15:17:03;2.87;;;2.10;;
33266;SDS011;19638;49.080;11.896;2023-04-03T15:21:07;4.20;;;2.40;;
33266;SDS011;19638;49.080;11.896;2023-04-03T15:25:12;4.23;;;2.20;;
33266;SDS011;19638;49.080;11.896;2023-04-03T15:29:15;4.30;;;2.63;;
33266;SDS011;19638;49.080;11.896;2023-04-03T15:33:19;3.73;;;2.60;;
33266;SDS011;19638;49.080;11.896;2023-04-03T15:37:24;2.10;;;2.00;;
33266;SDS011;19638;49.080;11.896;2023-04-03T15:41:34;3.33;;;2.10;;
33266;SDS011;19638;49.080;11.896;2023-04-03T15:45:37;3.70;;;1.97;;
33266;SDS011;19638;49.080;11.896;2023-04-03T15:49:40;1.97;;;1.87;;
33266;SDS011;19638;49.080;11.896;2023-04-03T15:53:49;1.80;;;1.70;;
33266;SDS011;19638;49.080;11.896;2023-04-03T15:57:57;1.60;;;1.50;;
33266;SDS011;19638;49.080;11.896;2023-04-03T16:02:01;4.70;;;2.10;;
33266;SDS011;19638;49.080;11.896;2023-04-03T16:06:15;4.90;;;2.20;;
33266;SDS011;19638;49.080;11.896;2023-04-03T16:10:21;4.13;;;2.10;;
33266;SDS011;19638;49.080;11.896;2023-04-03T16:14:31;2.95;;;2.17;;
33266;SDS011;19638;49.080;11.896;2023-04-03T16:18:37;3.95;;;2.28;;
33266;SDS011;19638;49.080;11.896;2023-04-03T16:22:44;3.77;;;1.90;;
33266;SDS011;19638;49.080;11.896;2023-04-03T16:26:56;3.43;;;2.20;;
33266;SDS011;19638;49.080;11.896;2023-04-03T16:31:01;3.20;;;2.37;;
33266;SDS011;19638;49.080;11.896;2023-04-03T16:35:10;7.53;;;2.30;;
33266;SDS011;19638;49.080;11.896;2023-04-03T16:39:15;3.07;;;2.00;;
33266;SDS011;19638;49.080;11.896;2023-04-03T16:43:18;3.70;;;2.20;;
33266;SDS011;19638;49.080;11.896;2023-04-03T16:47:24;2.77;;;1.93;;
33266;SDS011;19638;49.080;11.896;2023-04-03T16:51:31;2.43;;;2.23;;
33266;SDS011;19638;49.080;11.896;2023-04-03T16:55:35;4.53;;;2.10;;
33266;SDS011;19638;49.080;11.896;2023-04-03T16:59:39;2.90;;;2.20;;
33266;SDS011;19638;49.080;11.896;2023-04-03T17:03:43;2.60;;;2.10;;
33266;SDS011;19638;49.080;11.896;2023-04-03T17:07:46;3.03;;;2.20;;
33266;SDS011;19638;49.080;11.896;2023-04-03T17:11:49;6.17;;;2.10;;
33266;SDS011;19638;49.080;11.896;2023-04-03T17:15:52;3.57;;;2.43;;
33266;SDS011;19638;49.080;11.896;2023-04-03T17:19:57;3.63;;;2.30;;
33266;SDS011;19638;49.080;11.896;2023-04-03T17:24:01;4.30;;;2.27;;
33266;SDS011;19638;49.080;11.896;2023-04-03T17:28:08;2.30;;;2.17;;
33266;SDS011;19638;49.080;11.896;2023-04-03T17:32:11;3.47;;;2.07;;
33266;SDS011;19638;49.080;11.896;2023-04-03T17:36:16;5.20;;;3.10;;
33266;SDS011;19638;49.080;11.896;2023-04-03T17:40:19;3.77;;;2.43;;
33266;SDS011;19638;49.080;11.896;2023-04-03T17:44:24;5.43;;;3.30;;
33266;SDS011;19638;49.080;11.896;2023-04-03T17:48:29;2.73;;;2.50;;
33266;SDS011;19638;49.080;11.896;2023-04-03T17:52:34;3.23;;;2.30;;
33266;SDS011;19638;49.080;11.896;2023-04-03T17:56:42;2.50;;;2.40;;
33266;SDS011;19638;49.080;11.896;2023-04-03T18:00:48;3.40;;;2.17;;
33266;SDS011;19638;49.080;11.896;2023-04-03T18:05:01;2.37;;;2.17;;
33266;SDS011;19638;49.080;11.896;2023-04-03T18:09:07;3.33;;;2.60;;
33266;SDS011;19638;49.080;11.896;2023-04-03T18:13:13;3.40;;;2.10;;
33266;SDS011;19638;49.080;11.896;2023-04-03T18:17:17;4.23;;;2.40;;
33266;SDS011;19638;49.080;11.896;2023-04-03T18:21:23;4.00;;;2.60;;
33266;SDS011;19638;49.080;11.896;2023-04-03T18:25:28;4.90;;;3.03;;
33266;SDS011;19638;49.080;11.896;2023-04-03T18:29:38;4.67;;;2.80;;
33266;SDS011;19638;49.080;11.896;2023-04-03T18:33:51;3.10;;;2.60;;
33266;SDS011;19638;49.080;11.896;2023-04-03T18:37:56;3.67;;;2.20;;
33266;SDS011;19638;49.080;11.896;2023-04-03T18:42:03;6.50;;;2.87;;
33266;SDS011;19638;49.080;11.896;2023-04-03T18:46:15;2.70;;;2.50;;
33266;SDS011;19638;49.080;11.896;2023-04-03T18:50:20;3.80;;;2.50;;
33266;SDS011;19638;49.080;11.896;2023-04-03T18:54:24;2.90;;;2.70;;
33266;SDS011;19638;49.080;11.896;2023-04-03T18:58:28;6.07;;;2.67;;
33266;SDS011;19638;49.080;11.896;2023-04-03T19:02:33;5.63;;;2.27;;
33266;SDS011;19638;49.080;11.896;2023-04-03T19:06:39;4.07;;;3.13;;
33266;SDS011;19638;49.080;11.896;2023-04-03T19:10:44;3.70;;;2.60;;
33266;SDS011;19638;49.080;11.896;2023-04-03T19:14:52;5.37;;;3.13;;
33266;SDS011;19638;49.080;11.896;2023-04-03T19:18:55;4.43;;;3.07;;
33266;SDS011;19638;49.080;11.896;2023-04-03T19:22:57;5.90;;;3.40;;
33266;SDS011;19638;49.080;11.896;2023-04-03T19:27:02;3.43;;;2.83;;
33266;SDS011;19638;49.080;11.896;2023-04-03T19:31:11;3.50;;;2.60;;
33266;SDS011;19638;49.080;11.896;2023-04-03T19:35:14;4.23;;;2.30;;
33266;SDS011;19638;49.080;11.896;2023-04-03T19:39:17;3.40;;;2.60;;
33266;SDS011;19638;49.080;11.896;2023-04-03T19:43:20;5.27;;;2.73;;
33266;SDS011;19638;49.080;11.896;2023-04-03T19:47:24;2.80;;;2.20;;
33266;SDS011;19638;49.080;11.896;2023-04-03T19:51:29;4.10;;;2.73;;
33266;SDS011;19638;49.080;11.896;2023-04-03T19:55:32;2.63;;;2.43;;
33266;SDS011;19638;49.080;11.896;2023-04-03T19:59:36;2.90;;;2.40;;
33266;SDS011;19638;49.080;11.896;2023-04-03T20:03:42;3.33;;;2.93;;
33266;SDS011;19638;49.080;11.896;2023-04-03T20:07:46;12.33;;;4.30;;
33266;SDS011;19638;49.080;11.896;2023-04-03T20:11:50;11.00;;;4.03;;
33266;SDS011;19638;49.080;11.896;2023-04-03T20:15:54;3.57;;;2.90;;
33266;SDS011;19638;49.080;11.896;2023-04-03T20:20:00;4.00;;;2.57;;
33266;SDS011;19638;49.080;11.896;2023-04-03T20:24:05;2.87;;;2.63;;
33266;SDS011;19638;49.080;11.896;2023-04-03T20:28:13;3.93;;;2.90;;
33266;SDS011;19638;49.080;11.896;2023-04-03T20:32:17;2.97;;;2.47;;
33266;SDS011;19638;49.080;11.896;2023-04-03T20:36:24;4.37;;;2.53;;
33266;SDS011;19638;49.080;11.896;2023-04-03T20:40:31;2.67;;;2.47;;
33266;SDS011;19638;49.080;11.896;2023-04-03T20:44:38;3.63;;;2.47;;
33266;SDS011;19638;49.080;11.896;2023-04-03T20:48:40;4.70;;;2.57;;
33266;SDS011;19638;49.080;11.896;2023-04-03T20:52:46;3.63;;;2.77;;
33266;SDS011;19638;49.080;11.896;2023-04-03T20:56:49;4.47;;;2.80;;
33266;SDS011;19638;49.080;11.896;2023-04-03T21:00:53;5.20;;;2.53;;
33266;SDS011;19638;49.080;11.896;2023-04-03T21:04:56;6.40;;;3.10;;
33266;SDS011;19638;49.080;11.896;2023-04-03T21:22:54;5.17;;;2.47;;
33266;SDS011;19638;49.080;11.896;2023-04-03T21:27:01;3.53;;;3.00;;
33266;SDS011;19638;49.080;11.896;2023-04-03T21:31:05;8.17;;;3.00;;
33266;SDS011;19638;49.080;11.896;2023-04-03T21:35:10;3.70;;;2.40;;
33266;SDS011;19638;49.080;11.896;2023-04-03T21:39:14;4.93;;;2.37;;
33266;SDS011;19638;49.080;11.896;2023-04-03T21:43:17;6.23;;;2.70;;
33266;SDS011;19638;49.080;11.896;2023-04-03T21:47:20;5.80;;;2.50;;
33266;SDS011;19638;49.080;11.896;2023-04-03T21:51:25;6.20;;;2.90;;
33266;SDS011;19638;49.080;11.896;2023-04-03T21:55:30;5.30;;;2.13;;
33266;SDS011;19638;49.080;11.896;2023-04-03T21:59:35;5.63;;;2.63;;
33266;SDS011;19638;49.080;11.896;2023-04-03T22:03:39;6.30;;;2.80;;
33266;SDS011;19638;49.080;11.896;2023-04-03T22:07:47;3.07;;;2.63;;
33266;SDS011;19638;49.080;11.896;2023-04-03T22:11:54;3.10;;;2.20;;
33266;SDS011;19638;49.080;11.896;2023-04-03T22:15:57;2.40;;;1.93;;
33266;SDS011;19638;49.080;11.896;2023-04-03T22:20:02;4.17;;;2.90;;
33266;SDS011;19638;49.080;11.896;2023-04-03T22:24:07;3.80;;;2.57;;
33266;SDS011;19638;49.080;11.896;2023-04-03T22:28:10;6.23;;;2.47;;
33266;SDS011;19638;49.080;11.896;2023-04-03T22:32:16;8.07;;;2.57;;
33266;SDS011;19638;49.080;11.896;2023-04-03T22:36:24;4.43;;;2.53;;
33266;SDS011;19638;49.080;11.896;2023-04-03T22:40:31;8.13;;;2.93;;
33266;SDS011;19638;49.080;11.896;2023-04-03T22:44:45;3.00;;;2.20;;
33266;SDS011;19638;49.080;11.896;2023-04-03T22:48:47;4.70;;;2.47;;
33266;SDS011;19638;49.080;11.896;2023-04-03T22:52:53;5.20;;;2.80;;
33266;SDS011;19638;49.080;11.896;2023-04-03T22:56:57;2.97;;;2.17;;
33266;SDS011;19638;49.080;11.896;2023-04-03T23:01:02;3.57;;;2.60;;
33266;SDS011;19638;49.080;11.896;2023-04-03T23:05:08;3.40;;;2.13;;
33266;SDS011;19638;49.080;11.896;2023-04-03T23:09:14;4.13;;;2.20;;
33266;SDS011;19638;49.080;11.896;2023-04-03T23:13:19;4.30;;;2.20;;
33266;SDS011;19638;49.080;11.896;2023-04-03T23:17:25;2.70;;;2.00;;
33266;SDS011;19638;49.080;11.896;2023-04-03T23:21:28;4.17;;;2.30;;
33266;SDS011;19638;49.080;11.896;2023-04-03T23:25:30;4.13;;;2.13;;
33266;SDS011;19638;49.080;11.896;2023-04-03T23:29:35;6.97;;;4.30;;
33266;SDS011;19638;49.080;11.896;2023-04-03T23:33:38;4.63;;;2.30;;
33266;SDS011;19638;49.080;11.896;2023-04-03T23:37:44;3.17;;;2.10;;
33266;SDS011;19638;49.080;11.896;2023-04-03T23:41:50;3.23;;;2.37;;
33266;SDS011;19638;49.080;11.896;2023-04-03T23:45:57;1.97;;;1.87;;
33266;SDS011;19638;49.080;11.896;2023-04-03T23:50:04;4.50;;;2.40;;
33266;SDS011;19638;49.080;11.896;2023-04-03T23:54:14;2.67;;;2.47;;
33266;SDS011;19638;49.080;11.896;2023-04-03T23:58:19;2.53;;;1.97;;
